メインページ
METAR-TAF:

METAR-TAF

空港 :

徳島飛行場

徳島, 日本

緯度: 34-08N, 経度: 134-37E, 海抜: 8m

現時点の気象観測

当レポートは9時間0分前の02:48(UTC)に作成
の風 8kt、北/北西から北東の間で変化する
気温 19°C
湿度 52%
気圧 1018 hPa
視程10km以上
高度2000ftの雲はほとんどない
高度3500ftの雲は散在している
千切れ雲あり

METAR: RJOS 200248Z 01008KT 330V050 9999 FEW020 SCT035 BKN/// 19/09 Q1018 RMK 1CU020 4CU035 A3006

時間: 20:48 (11:48 UTC)


TAF: 見つかりません

4,000以上の空港の気象観測と天気予報(METAR報とTAF報)

利用可能な観測所は地図上に黄色い丸と赤い丸で示す。

丸の上にカーソルを重ねると観測所名を参照できる。

次にクリックすると気象観測と天気予報を参照できる。

マップの切り替え:黒色「×」印の緑ボタンをクリックして拡大、「-」印の緑ボタンをクリックして縮小、緑色の三角印をクリックして隣りの地図に切り替え


METAR-TAF: